Disclaimer

Please do not use the information listed here in-flight or in-navigation, as they are not provided to us by the airports but are provided by volunteers, so they might be outdated.

Search


Regions


Airport information page

Radio informations:
Tower (TWR) - 118.7 MHz
PREFLIGHT - 121.05 MHz
Ground (GND) - 121.7 MHz
DEP - 127.75 MHz
Automatic Terminal Information Service (ATIS) - 131.35 MHz
Approach (APP) - 123.875 MHz

Airport informations:
Latitude: 48° 43' 31.00" N
Longitude: 002° 21' 34.00" E
Elevation: 291 feet - 89 meters
Operating hours: 24 hour operations
Operating agency: Civil government, landing fees and diplomatic clearance may be required
Timezone: UTC+1(+2DT) - Last Sunday in March to last Sunday in October
Fuel: Jet A1, without icing nhibitor.

Runway information:
02/20 - 7874 x 197 feet< - >2400 x 60 meters
06/24 - 11975 x 148 feet< - >3650 x 45 meters
08/26 - 10892 x 148 feet< - >3320 x 45 meters

Recent METARs:
LFPO 211900Z 04004KT 9999 BKN040 BKN053 04/01 Q1016 NOSIG
LFPO 211900Z 04004KT 9999 BKN040 BKN053 04/01 Q1016 NOSIG
LFPO 212000Z 04005KT 9000 SCT018 BKN030 04/02 Q1016 NOSIG

Airport on the map: